Overview Statistics Trail Chart Weather Telemetry Raw packets
 

This is the latest recevied weather packets stored in our database for station/object IU1OLT-6. If no packets are shown the sender has not sent any weather packets the latest 10 day(s).

<< 31 32 33 34 35 36 37 >>
Time Temp. Humidity Pressure Rain* Wind** Luminosity Snow
1787920457 21.11° C 59% 1014 hPa 0 mm - - -
1787919497 21.11° C 52% 1013.9 hPa 0 mm - - -
1787918537 20.56° C 51% 1013.8 hPa 0 mm - - -
1787917577 20° C 65% 1013.8 hPa 0 mm - - -
1787916617 20.56° C 59% 1014.1 hPa 0 mm - - -
1787915657 20.56° C 57% 1013.7 hPa 0 mm - - -
1787914745 20° C 69% 1015 hPa 0 mm - - -
1787913833 18.89° C 86% 1015.9 hPa 0 mm - - -
1787912873 18.33° C 91% 1016.2 hPa 0 mm - - -
1787911913 18.33° C 91% 1016.2 hPa 0 mm - - -
1787910953 18.33° C 87% 1015.9 hPa 0 mm - - -
1787909993 18.33° C 87% 1016.1 hPa 0 mm - - -
1787909033 18.89° C 71% 1016.2 hPa 0 mm - - -
1787908073 18.89° C 70% 1015.8 hPa 0 mm - - -
1787907113 19.44° C 76% 1015.9 hPa 0 mm - - -
1787906153 19.44° C 66% 1015.9 hPa 0 mm - - -
1787905241 19.44° C 61% 1015.8 hPa 0 mm - - -
1787904329 19.44° C 62% 1015.2 hPa 0 mm - - -
1787903369 18.89° C 63% 1015.2 hPa 0 mm - - -
1787902409 18.89° C 63% 1015.1 hPa 0 mm - - -
1787901449 18.89° C 67% 1014.9 hPa 0 mm - - -
1787900393 18.33° C 73% 1015.3 hPa 0 mm - - -
1787899433 17.78° C 72% 1015.5 hPa 0 mm - - -
1787898473 17.78° C 81% 1015.9 hPa 0 mm - - -
1787897513 17.22° C 84% 1015.8 hPa 0 mm - - -

* Rain latest hour (hover to see other rain measurements)
** Current wind speed in m/s (hover to see current wind gust speed)